sensor_id;sensor_type;location;lat;lon;timestamp;temperature;humidity
45803;DHT22;31504;51.716;9.184;2022-10-31T00:00:59;21.00;61.40
45803;DHT22;31504;51.716;9.184;2022-10-31T00:03:59;21.00;61.40
45803;DHT22;31504;51.716;9.184;2022-10-31T00:07:00;21.00;61.30
45803;DHT22;31504;51.716;9.184;2022-10-31T00:10:01;21.00;61.30
45803;DHT22;31504;51.716;9.184;2022-10-31T00:13:01;21.00;61.20
45803;DHT22;31504;51.716;9.184;2022-10-31T00:16:02;21.00;61.20
45803;DHT22;31504;51.716;9.184;2022-10-31T00:19:05;21.00;61.20
45803;DHT22;31504;51.716;9.184;2022-10-31T00:22:06;21.00;61.20
45803;DHT22;31504;51.716;9.184;2022-10-31T00:25:06;21.00;61.10
45803;DHT22;31504;51.716;9.184;2022-10-31T00:28:09;21.00;61.00
45803;DHT22;31504;51.716;9.184;2022-10-31T00:31:12;21.00;61.00
45803;DHT22;31504;51.716;9.184;2022-10-31T00:34:12;21.00;60.90
45803;DHT22;31504;51.716;9.184;2022-10-31T00:37:13;21.00;60.90
45803;DHT22;31504;51.716;9.184;2022-10-31T00:40:14;21.00;60.90
45803;DHT22;31504;51.716;9.184;2022-10-31T00:43:14;21.00;60.90
45803;DHT22;31504;51.716;9.184;2022-10-31T00:46:15;20.90;60.80
45803;DHT22;31504;51.716;9.184;2022-10-31T00:49:15;21.00;60.80
45803;DHT22;31504;51.716;9.184;2022-10-31T00:52:16;21.00;60.80
45803;DHT22;31504;51.716;9.184;2022-10-31T00:55:16;21.00;60.70
45803;DHT22;31504;51.716;9.184;2022-10-31T00:58:17;21.00;60.70
45803;DHT22;31504;51.716;9.184;2022-10-31T01:01:18;21.00;60.70
45803;DHT22;31504;51.716;9.184;2022-10-31T01:04:18;21.00;60.60
45803;DHT22;31504;51.716;9.184;2022-10-31T01:07:19;21.00;60.60
45803;DHT22;31504;51.716;9.184;2022-10-31T01:10:19;21.00;60.60
45803;DHT22;31504;51.716;9.184;2022-10-31T01:13:20;21.00;60.50
45803;DHT22;31504;51.716;9.184;2022-10-31T01:16:22;21.00;60.50
45803;DHT22;31504;51.716;9.184;2022-10-31T01:19:23;20.90;60.40
45803;DHT22;31504;51.716;9.184;2022-10-31T01:22:24;21.00;60.50
45803;DHT22;31504;51.716;9.184;2022-10-31T01:25:24;21.00;60.40
45803;DHT22;31504;51.716;9.184;2022-10-31T01:28:25;20.90;60.30
45803;DHT22;31504;51.716;9.184;2022-10-31T01:31:29;21.00;60.40
45803;DHT22;31504;51.716;9.184;2022-10-31T01:34:30;21.00;60.40
45803;DHT22;31504;51.716;9.184;2022-10-31T01:37:31;21.00;60.30
45803;DHT22;31504;51.716;9.184;2022-10-31T01:40:31;20.90;60.30
45803;DHT22;31504;51.716;9.184;2022-10-31T01:44:01;21.00;60.30
45803;DHT22;31504;51.716;9.184;2022-10-31T01:47:11;20.90;60.20
45803;DHT22;31504;51.716;9.184;2022-10-31T01:50:22;20.90;60.20
45803;DHT22;31504;51.716;9.184;2022-10-31T01:53:25;20.90;60.20
45803;DHT22;31504;51.716;9.184;2022-10-31T01:56:25;20.90;60.20
45803;DHT22;31504;51.716;9.184;2022-10-31T01:59:29;20.90;60.20
45803;DHT22;31504;51.716;9.184;2022-10-31T02:02:31;20.90;60.10
45803;DHT22;31504;51.716;9.184;2022-10-31T02:05:32;20.90;60.10
45803;DHT22;31504;51.716;9.184;2022-10-31T02:08:35;20.90;60.00
45803;DHT22;31504;51.716;9.184;2022-10-31T02:11:37;20.90;60.00
45803;DHT22;31504;51.716;9.184;2022-10-31T02:14:38;20.90;60.00
45803;DHT22;31504;51.716;9.184;2022-10-31T02:17:39;20.90;60.00
45803;DHT22;31504;51.716;9.184;2022-10-31T02:24:56;20.90;60.00
45803;DHT22;31504;51.716;9.184;2022-10-31T02:31:34;20.90;59.90
45803;DHT22;31504;51.716;9.184;2022-10-31T02:45:11;20.90;59.90
45803;DHT22;31504;51.716;9.184;2022-10-31T02:48:19;20.90;59.80
45803;DHT22;31504;51.716;9.184;2022-10-31T02:51:21;20.90;59.80
45803;DHT22;31504;51.716;9.184;2022-10-31T02:54:24;20.90;59.80
45803;DHT22;31504;51.716;9.184;2022-10-31T02:57:28;20.90;59.70
45803;DHT22;31504;51.716;9.184;2022-10-31T03:00:37;20.90;59.80
45803;DHT22;31504;51.716;9.184;2022-10-31T03:07:32;20.90;59.70
45803;DHT22;31504;51.716;9.184;2022-10-31T03:10:39;20.90;59.70
45803;DHT22;31504;51.716;9.184;2022-10-31T03:13:50;20.90;59.70
45803;DHT22;31504;51.716;9.184;2022-10-31T03:16:53;20.90;59.70
45803;DHT22;31504;51.716;9.184;2022-10-31T03:19:56;20.90;59.60
45803;DHT22;31504;51.716;9.184;2022-10-31T03:23:01;20.90;59.60
45803;DHT22;31504;51.716;9.184;2022-10-31T03:26:05;20.90;59.60
45803;DHT22;31504;51.716;9.184;2022-10-31T03:29:10;20.90;59.60
45803;DHT22;31504;51.716;9.184;2022-10-31T03:32:25;20.90;59.50
45803;DHT22;31504;51.716;9.184;2022-10-31T03:35:27;20.90;59.50
45803;DHT22;31504;51.716;9.184;2022-10-31T03:38:28;20.90;60.00
45803;DHT22;31504;51.716;9.184;2022-10-31T03:41:32;20.90;59.50
45803;DHT22;31504;51.716;9.184;2022-10-31T03:44:34;20.90;59.50
45803;DHT22;31504;51.716;9.184;2022-10-31T03:47:37;20.90;59.50
45803;DHT22;31504;51.716;9.184;2022-10-31T03:50:56;20.90;60.00
45803;DHT22;31504;51.716;9.184;2022-10-31T03:54:14;20.90;59.40
45803;DHT22;31504;51.716;9.184;2022-10-31T03:58:42;20.90;59.40
45803;DHT22;31504;51.716;9.184;2022-10-31T04:01:12;20.90;59.40
45803;DHT22;31504;51.716;9.184;2022-10-31T04:04:15;20.90;59.40
45803;DHT22;31504;51.716;9.184;2022-10-31T04:07:16;20.90;59.40
45803;DHT22;31504;51.716;9.184;2022-10-31T04:10:19;20.90;59.40
45803;DHT22;31504;51.716;9.184;2022-10-31T04:13:25;20.90;59.40
45803;DHT22;31504;51.716;9.184;2022-10-31T04:16:27;20.90;59.30
45803;DHT22;31504;51.716;9.184;2022-10-31T04:19:28;20.90;59.30
45803;DHT22;31504;51.716;9.184;2022-10-31T04:22:29;20.90;59.40
45803;DHT22;31504;51.716;9.184;2022-10-31T04:25:29;20.90;59.40
45803;DHT22;31504;51.716;9.184;2022-10-31T04:28:30;20.90;59.40
45803;DHT22;31504;51.716;9.184;2022-10-31T04:31:30;20.90;60.00
45803;DHT22;31504;51.716;9.184;2022-10-31T04:34:31;20.90;59.40
45803;DHT22;31504;51.716;9.184;2022-10-31T04:37:31;20.90;59.40
45803;DHT22;31504;51.716;9.184;2022-10-31T04:40:32;20.90;59.30
45803;DHT22;31504;51.716;9.184;2022-10-31T04:43:32;20.90;59.40
45803;DHT22;31504;51.716;9.184;2022-10-31T04:46:33;20.80;59.30
45803;DHT22;31504;51.716;9.184;2022-10-31T04:49:33;20.90;59.30
45803;DHT22;31504;51.716;9.184;2022-10-31T04:52:45;20.90;59.20
45803;DHT22;31504;51.716;9.184;2022-10-31T04:55:45;20.90;59.30
45803;DHT22;31504;51.716;9.184;2022-10-31T04:58:46;20.90;59.20
45803;DHT22;31504;51.716;9.184;2022-10-31T05:01:47;20.90;59.20
45803;DHT22;31504;51.716;9.184;2022-10-31T05:04:47;20.90;59.20
45803;DHT22;31504;51.716;9.184;2022-10-31T05:07:48;20.90;59.20
45803;DHT22;31504;51.716;9.184;2022-10-31T05:10:49;20.80;59.10
45803;DHT22;31504;51.716;9.184;2022-10-31T05:13:49;20.90;59.20
45803;DHT22;31504;51.716;9.184;2022-10-31T05:16:50;20.90;59.70
45803;DHT22;31504;51.716;9.184;2022-10-31T05:19:50;20.80;59.00
45803;DHT22;31504;51.716;9.184;2022-10-31T05:22:54;20.80;59.10
45803;DHT22;31504;51.716;9.184;2022-10-31T05:25:55;20.80;59.00
45803;DHT22;31504;51.716;9.184;2022-10-31T05:28:55;20.80;58.90
45803;DHT22;31504;51.716;9.184;2022-10-31T05:31:55;20.80;59.00
45803;DHT22;31504;51.716;9.184;2022-10-31T05:34:56;20.80;59.00
45803;DHT22;31504;51.716;9.184;2022-10-31T05:37:57;20.80;58.90
45803;DHT22;31504;51.716;9.184;2022-10-31T05:41:00;20.80;58.80
45803;DHT22;31504;51.716;9.184;2022-10-31T05:44:01;20.80;58.90
45803;DHT22;31504;51.716;9.184;2022-10-31T05:47:01;20.80;58.80
45803;DHT22;31504;51.716;9.184;2022-10-31T05:50:02;20.80;58.80
45803;DHT22;31504;51.716;9.184;2022-10-31T05:53:04;20.80;58.80
45803;DHT22;31504;51.716;9.184;2022-10-31T05:56:05;20.80;58.80
45803;DHT22;31504;51.716;9.184;2022-10-31T05:59:05;20.80;58.80
45803;DHT22;31504;51.716;9.184;2022-10-31T06:02:06;20.80;58.80
45803;DHT22;31504;51.716;9.184;2022-10-31T06:05:07;20.80;58.60
45803;DHT22;31504;51.716;9.184;2022-10-31T06:08:07;20.80;58.70
45803;DHT22;31504;51.716;9.184;2022-10-31T06:11:08;20.80;58.60
45803;DHT22;31504;51.716;9.184;2022-10-31T06:14:09;20.80;58.60
45803;DHT22;31504;51.716;9.184;2022-10-31T06:17:09;20.80;58.60
45803;DHT22;31504;51.716;9.184;2022-10-31T06:20:10;20.80;58.50
45803;DHT22;31504;51.716;9.184;2022-10-31T06:23:11;20.80;58.60
45803;DHT22;31504;51.716;9.184;2022-10-31T06:26:11;20.80;58.50
45803;DHT22;31504;51.716;9.184;2022-10-31T06:29:12;20.80;58.50
45803;DHT22;31504;51.716;9.184;2022-10-31T06:32:13;20.80;58.50
45803;DHT22;31504;51.716;9.184;2022-10-31T06:35:13;20.80;58.40
45803;DHT22;31504;51.716;9.184;2022-10-31T06:38:14;20.80;58.40
45803;DHT22;31504;51.716;9.184;2022-10-31T06:41:15;20.80;58.40
45803;DHT22;31504;51.716;9.184;2022-10-31T06:44:15;20.80;58.40
45803;DHT22;31504;51.716;9.184;2022-10-31T06:47:16;20.80;58.50
45803;DHT22;31504;51.716;9.184;2022-10-31T06:50:16;20.80;58.50
45803;DHT22;31504;51.716;9.184;2022-10-31T06:53:16;20.80;58.60
45803;DHT22;31504;51.716;9.184;2022-10-31T06:56:17;20.80;58.60
45803;DHT22;31504;51.716;9.184;2022-10-31T06:59:17;20.80;58.70
45803;DHT22;31504;51.716;9.184;2022-10-31T07:02:18;20.80;58.70
45803;DHT22;31504;51.716;9.184;2022-10-31T07:05:18;20.80;58.70
45803;DHT22;31504;51.716;9.184;2022-10-31T07:08:19;20.80;58.80
45803;DHT22;31504;51.716;9.184;2022-10-31T07:11:20;20.80;58.70
45803;DHT22;31504;51.716;9.184;2022-10-31T07:14:20;20.80;58.70
45803;DHT22;31504;51.716;9.184;2022-10-31T07:17:23;20.80;58.70
45803;DHT22;31504;51.716;9.184;2022-10-31T07:20:24;20.80;58.80
45803;DHT22;31504;51.716;9.184;2022-10-31T07:23:25;20.80;58.70
45803;DHT22;31504;51.716;9.184;2022-10-31T07:26:25;20.80;58.80
45803;DHT22;31504;51.716;9.184;2022-10-31T07:29:27;20.80;58.70
45803;DHT22;31504;51.716;9.184;2022-10-31T07:32:36;20.80;58.70
45803;DHT22;31504;51.716;9.184;2022-10-31T07:35:37;20.80;58.70
45803;DHT22;31504;51.716;9.184;2022-10-31T07:38:37;20.80;58.60
45803;DHT22;31504;51.716;9.184;2022-10-31T07:41:38;20.80;58.60
45803;DHT22;31504;51.716;9.184;2022-10-31T07:44:38;20.80;58.60
45803;DHT22;31504;51.716;9.184;2022-10-31T07:47:46;20.80;58.50
45803;DHT22;31504;51.716;9.184;2022-10-31T07:50:47;20.80;58.60
45803;DHT22;31504;51.716;9.184;2022-10-31T07:53:48;20.80;58.50
45803;DHT22;31504;51.716;9.184;2022-10-31T07:56:48;20.80;58.60
45803;DHT22;31504;51.716;9.184;2022-10-31T07:59:49;20.80;58.60
45803;DHT22;31504;51.716;9.184;2022-10-31T08:02:57;20.80;58.50
45803;DHT22;31504;51.716;9.184;2022-10-31T08:05:57;20.80;58.40
45803;DHT22;31504;51.716;9.184;2022-10-31T08:08:58;20.70;57.90
45803;DHT22;31504;51.716;9.184;2022-10-31T08:11:59;20.70;57.40
45803;DHT22;31504;51.716;9.184;2022-10-31T08:14:59;20.60;56.80
45803;DHT22;31504;51.716;9.184;2022-10-31T08:18:00;20.60;56.30
45803;DHT22;31504;51.716;9.184;2022-10-31T08:21:00;20.50;55.90
45803;DHT22;31504;51.716;9.184;2022-10-31T08:24:01;20.50;55.60
45803;DHT22;31504;51.716;9.184;2022-10-31T08:27:01;20.50;55.40
45803;DHT22;31504;51.716;9.184;2022-10-31T08:30:02;20.40;55.90
45803;DHT22;31504;51.716;9.184;2022-10-31T08:33:10;20.40;55.10
45803;DHT22;31504;51.716;9.184;2022-10-31T08:36:11;20.40;55.20
45803;DHT22;31504;51.716;9.184;2022-10-31T08:39:11;20.40;55.40
45803;DHT22;31504;51.716;9.184;2022-10-31T08:42:12;20.40;55.30
45803;DHT22;31504;51.716;9.184;2022-10-31T08:45:13;20.40;55.30
45803;DHT22;31504;51.716;9.184;2022-10-31T08:48:15;20.40;55.50
45803;DHT22;31504;51.716;9.184;2022-10-31T08:51:15;20.40;55.50
45803;DHT22;31504;51.716;9.184;2022-10-31T08:54:16;20.30;55.60
45803;DHT22;31504;51.716;9.184;2022-10-31T08:57:16;20.30;55.70
45803;DHT22;31504;51.716;9.184;2022-10-31T09:00:17;20.40;55.90
45803;DHT22;31504;51.716;9.184;2022-10-31T09:03:20;20.30;56.00
45803;DHT22;31504;51.716;9.184;2022-10-31T09:06:21;20.30;56.10
45803;DHT22;31504;51.716;9.184;2022-10-31T09:09:21;20.30;56.20
45803;DHT22;31504;51.716;9.184;2022-10-31T09:12:22;20.30;56.50
45803;DHT22;31504;51.716;9.184;2022-10-31T09:15:24;20.30;56.90
45803;DHT22;31504;51.716;9.184;2022-10-31T09:18:25;20.30;56.90
45803;DHT22;31504;51.716;9.184;2022-10-31T09:21:28;20.40;57.10
45803;DHT22;31504;51.716;9.184;2022-10-31T09:24:28;20.50;57.10
45803;DHT22;31504;51.716;9.184;2022-10-31T09:27:29;20.50;57.20
45803;DHT22;31504;51.716;9.184;2022-10-31T09:30:31;20.50;57.40
45803;DHT22;31504;51.716;9.184;2022-10-31T09:33:32;20.60;57.50
45803;DHT22;31504;51.716;9.184;2022-10-31T09:36:32;20.60;57.60
45803;DHT22;31504;51.716;9.184;2022-10-31T09:39:33;20.60;57.70
45803;DHT22;31504;51.716;9.184;2022-10-31T09:42:52;20.70;57.90
45803;DHT22;31504;51.716;9.184;2022-10-31T09:46:15;20.70;57.90
45803;DHT22;31504;51.716;9.184;2022-10-31T09:52:54;20.70;58.20
45803;DHT22;31504;51.716;9.184;2022-10-31T09:55:58;20.80;58.20
45803;DHT22;31504;51.716;9.184;2022-10-31T09:59:02;20.70;58.20
45803;DHT22;31504;51.716;9.184;2022-10-31T10:09:05;20.70;58.50
45803;DHT22;31504;51.716;9.184;2022-10-31T10:12:38;20.60;58.50
45803;DHT22;31504;51.716;9.184;2022-10-31T10:22:36;20.70;58.60
45803;DHT22;31504;51.716;9.184;2022-10-31T10:25:39;20.70;58.60
45803;DHT22;31504;51.716;9.184;2022-10-31T10:28:43;20.70;58.60
45803;DHT22;31504;51.716;9.184;2022-10-31T10:31:44;20.70;58.70
45803;DHT22;31504;51.716;9.184;2022-10-31T10:38:20;20.70;58.80
45803;DHT22;31504;51.716;9.184;2022-10-31T10:41:23;20.70;58.80
45803;DHT22;31504;51.716;9.184;2022-10-31T10:44:25;20.70;58.80
45803;DHT22;31504;51.716;9.184;2022-10-31T10:47:48;20.70;58.90
45803;DHT22;31504;51.716;9.184;2022-10-31T10:50:52;20.70;58.90
45803;DHT22;31504;51.716;9.184;2022-10-31T10:54:22;20.70;59.00
45803;DHT22;31504;51.716;9.184;2022-10-31T11:00:50;20.70;59.10
45803;DHT22;31504;51.716;9.184;2022-10-31T11:03:53;20.70;59.20
45803;DHT22;31504;51.716;9.184;2022-10-31T11:10:05;20.70;59.20
45803;DHT22;31504;51.716;9.184;2022-10-31T11:16:26;20.70;59.30
45803;DHT22;31504;51.716;9.184;2022-10-31T11:19:27;20.70;59.30
45803;DHT22;31504;51.716;9.184;2022-10-31T11:22:28;20.70;59.50
45803;DHT22;31504;51.716;9.184;2022-10-31T11:25:29;20.70;59.90
45803;DHT22;31504;51.716;9.184;2022-10-31T11:28:31;20.70;60.20
45803;DHT22;31504;51.716;9.184;2022-10-31T11:31:34;20.70;60.40
45803;DHT22;31504;51.716;9.184;2022-10-31T11:34:42;20.70;60.70
45803;DHT22;31504;51.716;9.184;2022-10-31T11:37:44;20.70;61.10
45803;DHT22;31504;51.716;9.184;2022-10-31T11:40:58;20.70;61.20
45803;DHT22;31504;51.716;9.184;2022-10-31T11:44:02;20.70;61.60
45803;DHT22;31504;51.716;9.184;2022-10-31T11:47:05;20.70;61.60
45803;DHT22;31504;51.716;9.184;2022-10-31T11:50:15;20.70;62.00
45803;DHT22;31504;51.716;9.184;2022-10-31T11:53:26;20.70;61.80
45803;DHT22;31504;51.716;9.184;2022-10-31T11:56:36;20.70;62.00
45803;DHT22;31504;51.716;9.184;2022-10-31T11:59:38;20.70;62.20
45803;DHT22;31504;51.716;9.184;2022-10-31T12:02:39;20.70;62.30
45803;DHT22;31504;51.716;9.184;2022-10-31T12:05:41;20.70;62.30
45803;DHT22;31504;51.716;9.184;2022-10-31T12:08:42;20.70;62.40
45803;DHT22;31504;51.716;9.184;2022-10-31T12:11:54;20.70;62.40
45803;DHT22;31504;51.716;9.184;2022-10-31T12:15:19;20.70;62.40
45803;DHT22;31504;51.716;9.184;2022-10-31T12:18:32;20.80;62.80
45803;DHT22;31504;51.716;9.184;2022-10-31T12:35:40;20.80;62.80
45803;DHT22;31504;51.716;9.184;2022-10-31T12:39:10;20.80;62.70
45803;DHT22;31504;51.716;9.184;2022-10-31T12:43:03;20.80;62.80
45803;DHT22;31504;51.716;9.184;2022-10-31T12:49:28;20.80;62.80
45803;DHT22;31504;51.716;9.184;2022-10-31T12:56:05;20.80;62.70
45803;DHT22;31504;51.716;9.184;2022-10-31T12:59:20;20.80;62.60
45803;DHT22;31504;51.716;9.184;2022-10-31T13:02:33;20.80;62.60
45803;DHT22;31504;51.716;9.184;2022-10-31T13:05:44;20.80;62.70
45803;DHT22;31504;51.716;9.184;2022-10-31T13:08:52;20.80;62.80
45803;DHT22;31504;51.716;9.184;2022-10-31T13:11:58;20.80;62.80
45803;DHT22;31504;51.716;9.184;2022-10-31T13:15:16;20.80;62.90
45803;DHT22;31504;51.716;9.184;2022-10-31T13:18:27;20.80;62.90
45803;DHT22;31504;51.716;9.184;2022-10-31T13:21:52;20.80;62.90
45803;DHT22;31504;51.716;9.184;2022-10-31T13:31:31;20.80;63.00
45803;DHT22;31504;51.716;9.184;2022-10-31T13:34:44;20.80;63.00
45803;DHT22;31504;51.716;9.184;2022-10-31T13:38:03;20.80;63.00
45803;DHT22;31504;51.716;9.184;2022-10-31T13:44:29;20.80;63.20
45803;DHT22;31504;51.716;9.184;2022-10-31T13:47:30;20.80;63.10
45803;DHT22;31504;51.716;9.184;2022-10-31T13:50:32;20.80;63.10
45803;DHT22;31504;51.716;9.184;2022-10-31T13:53:45;20.80;63.30
45803;DHT22;31504;51.716;9.184;2022-10-31T13:56:56;20.80;63.40
45803;DHT22;31504;51.716;9.184;2022-10-31T14:00:22;20.80;63.40
45803;DHT22;31504;51.716;9.184;2022-10-31T14:03:25;20.70;63.40
45803;DHT22;31504;51.716;9.184;2022-10-31T14:06:42;20.70;63.60
45803;DHT22;31504;51.716;9.184;2022-10-31T14:10:19;20.70;63.60
45803;DHT22;31504;51.716;9.184;2022-10-31T14:13:41;20.80;63.70
45803;DHT22;31504;51.716;9.184;2022-10-31T14:16:44;20.80;63.70
45803;DHT22;31504;51.716;9.184;2022-10-31T14:20:00;20.80;63.70
45803;DHT22;31504;51.716;9.184;2022-10-31T14:23:12;20.70;63.70
45803;DHT22;31504;51.716;9.184;2022-10-31T14:26:17;20.70;63.60
45803;DHT22;31504;51.716;9.184;2022-10-31T14:32:25;20.70;63.70
45803;DHT22;31504;51.716;9.184;2022-10-31T14:35:37;20.80;63.80
45803;DHT22;31504;51.716;9.184;2022-10-31T14:39:01;20.80;63.90
45803;DHT22;31504;51.716;9.184;2022-10-31T14:42:06;20.70;63.90
45803;DHT22;31504;51.716;9.184;2022-10-31T14:45:33;20.70;63.70
45803;DHT22;31504;51.716;9.184;2022-10-31T14:51:59;20.70;64.10
45803;DHT22;31504;51.716;9.184;2022-10-31T14:55:00;20.70;64.20
45803;DHT22;31504;51.716;9.184;2022-10-31T14:58:06;20.70;64.20
45803;DHT22;31504;51.716;9.184;2022-10-31T15:01:07;20.70;64.50
45803;DHT22;31504;51.716;9.184;2022-10-31T15:04:20;20.70;64.40
45803;DHT22;31504;51.716;9.184;2022-10-31T15:07:24;20.70;64.30
45803;DHT22;31504;51.716;9.184;2022-10-31T15:10:30;20.70;64.40
45803;DHT22;31504;51.716;9.184;2022-10-31T15:13:32;20.70;64.60
45803;DHT22;31504;51.716;9.184;2022-10-31T15:16:39;20.70;64.50
45803;DHT22;31504;51.716;9.184;2022-10-31T15:19:41;20.70;64.60
45803;DHT22;31504;51.716;9.184;2022-10-31T15:22:42;20.70;64.40
45803;DHT22;31504;51.716;9.184;2022-10-31T15:25:43;20.70;64.50
45803;DHT22;31504;51.716;9.184;2022-10-31T15:28:45;20.70;64.60
45803;DHT22;31504;51.716;9.184;2022-10-31T15:31:54;20.70;64.60
45803;DHT22;31504;51.716;9.184;2022-10-31T15:34:56;20.70;64.70
45803;DHT22;31504;51.716;9.184;2022-10-31T15:37:57;20.70;64.90
45803;DHT22;31504;51.716;9.184;2022-10-31T15:41:04;20.70;64.90
45803;DHT22;31504;51.716;9.184;2022-10-31T15:44:12;20.70;64.80
45803;DHT22;31504;51.716;9.184;2022-10-31T15:47:17;20.70;64.80
45803;DHT22;31504;51.716;9.184;2022-10-31T15:50:26;20.80;64.90
45803;DHT22;31504;51.716;9.184;2022-10-31T15:53:41;20.80;64.70
45803;DHT22;31504;51.716;9.184;2022-10-31T15:56:43;20.80;64.70
45803;DHT22;31504;51.716;9.184;2022-10-31T15:59:48;20.80;64.80
45803;DHT22;31504;51.716;9.184;2022-10-31T16:02:49;20.80;64.70
45803;DHT22;31504;51.716;9.184;2022-10-31T16:05:58;20.80;64.90
45803;DHT22;31504;51.716;9.184;2022-10-31T16:08:58;20.80;64.90
45803;DHT22;31504;51.716;9.184;2022-10-31T16:11:59;20.80;65.00
45803;DHT22;31504;51.716;9.184;2022-10-31T16:15:00;20.80;65.00
45803;DHT22;31504;51.716;9.184;2022-10-31T16:18:00;20.80;64.90
45803;DHT22;31504;51.716;9.184;2022-10-31T16:21:01;20.90;65.10
45803;DHT22;31504;51.716;9.184;2022-10-31T16:24:10;20.80;65.00
45803;DHT22;31504;51.716;9.184;2022-10-31T16:27:19;20.80;65.30
45803;DHT22;31504;51.716;9.184;2022-10-31T16:30:47;20.80;65.20
45803;DHT22;31504;51.716;9.184;2022-10-31T16:33:49;20.80;65.20
45803;DHT22;31504;51.716;9.184;2022-10-31T16:36:49;20.80;65.10
45803;DHT22;31504;51.716;9.184;2022-10-31T16:39:50;20.90;65.20
45803;DHT22;31504;51.716;9.184;2022-10-31T16:42:51;20.90;65.00
45803;DHT22;31504;51.716;9.184;2022-10-31T16:45:52;20.90;65.10
45803;DHT22;31504;51.716;9.184;2022-10-31T16:48:53;20.80;65.40
45803;DHT22;31504;51.716;9.184;2022-10-31T16:51:54;20.80;65.90
45803;DHT22;31504;51.716;9.184;2022-10-31T16:54:55;20.70;66.10
45803;DHT22;31504;51.716;9.184;2022-10-31T16:57:57;20.70;66.20
45803;DHT22;31504;51.716;9.184;2022-10-31T17:00:59;20.70;66.20
45803;DHT22;31504;51.716;9.184;2022-10-31T17:04:00;20.60;66.30
45803;DHT22;31504;51.716;9.184;2022-10-31T17:07:00;20.70;66.30
45803;DHT22;31504;51.716;9.184;2022-10-31T17:10:01;20.70;66.50
45803;DHT22;31504;51.716;9.184;2022-10-31T17:13:02;20.70;66.40
45803;DHT22;31504;51.716;9.184;2022-10-31T17:16:04;20.80;66.30
45803;DHT22;31504;51.716;9.184;2022-10-31T17:19:05;20.80;66.90
45803;DHT22;31504;51.716;9.184;2022-10-31T17:22:05;20.80;66.20
45803;DHT22;31504;51.716;9.184;2022-10-31T17:25:09;20.70;66.30
45803;DHT22;31504;51.716;9.184;2022-10-31T17:28:13;20.70;66.30
45803;DHT22;31504;51.716;9.184;2022-10-31T17:31:28;20.70;67.10
45803;DHT22;31504;51.716;9.184;2022-10-31T17:34:29;20.70;66.70
45803;DHT22;31504;51.716;9.184;2022-10-31T17:37:30;20.80;66.70
45803;DHT22;31504;51.716;9.184;2022-10-31T17:40:30;20.80;66.60
45803;DHT22;31504;51.716;9.184;2022-10-31T17:43:31;20.80;66.40
45803;DHT22;31504;51.716;9.184;2022-10-31T17:46:31;20.80;66.30
45803;DHT22;31504;51.716;9.184;2022-10-31T17:49:32;20.80;66.20
45803;DHT22;31504;51.716;9.184;2022-10-31T17:52:32;20.80;66.30
45803;DHT22;31504;51.716;9.184;2022-10-31T17:55:33;20.80;66.20
45803;DHT22;31504;51.716;9.184;2022-10-31T17:58:35;20.80;66.30
45803;DHT22;31504;51.716;9.184;2022-10-31T18:01:35;20.90;66.30
45803;DHT22;31504;51.716;9.184;2022-10-31T18:04:36;20.90;66.30
45803;DHT22;31504;51.716;9.184;2022-10-31T18:07:37;20.90;66.30
45803;DHT22;31504;51.716;9.184;2022-10-31T18:10:38;20.90;66.40
45803;DHT22;31504;51.716;9.184;2022-10-31T18:13:39;20.80;66.60
45803;DHT22;31504;51.716;9.184;2022-10-31T18:16:39;20.90;66.80
45803;DHT22;31504;51.716;9.184;2022-10-31T18:19:40;20.90;66.60
45803;DHT22;31504;51.716;9.184;2022-10-31T18:22:40;20.80;66.50
45803;DHT22;31504;51.716;9.184;2022-10-31T18:25:41;20.80;67.00
45803;DHT22;31504;51.716;9.184;2022-10-31T18:28:42;20.90;67.40
45803;DHT22;31504;51.716;9.184;2022-10-31T18:31:43;20.90;66.80
45803;DHT22;31504;51.716;9.184;2022-10-31T18:34:47;20.90;66.80
45803;DHT22;31504;51.716;9.184;2022-10-31T18:37:48;20.90;66.70
45803;DHT22;31504;51.716;9.184;2022-10-31T18:40:50;20.90;67.20
45803;DHT22;31504;51.716;9.184;2022-10-31T18:43:51;20.90;66.60
45803;DHT22;31504;51.716;9.184;2022-10-31T18:46:55;20.90;66.60
45803;DHT22;31504;51.716;9.184;2022-10-31T18:49:55;20.90;66.60
45803;DHT22;31504;51.716;9.184;2022-10-31T18:52:56;20.90;66.60
45803;DHT22;31504;51.716;9.184;2022-10-31T18:55:57;20.90;66.60
45803;DHT22;31504;51.716;9.184;2022-10-31T18:58:59;20.90;66.50
45803;DHT22;31504;51.716;9.184;2022-10-31T19:02:01;20.90;66.50
45803;DHT22;31504;51.716;9.184;2022-10-31T19:05:02;20.90;66.50
45803;DHT22;31504;51.716;9.184;2022-10-31T19:08:03;20.90;66.50
45803;DHT22;31504;51.716;9.184;2022-10-31T19:11:12;20.90;67.20
45803;DHT22;31504;51.716;9.184;2022-10-31T19:14:13;20.90;66.70
45803;DHT22;31504;51.716;9.184;2022-10-31T19:17:14;20.90;66.60
45803;DHT22;31504;51.716;9.184;2022-10-31T19:20:14;20.90;66.70
45803;DHT22;31504;51.716;9.184;2022-10-31T19:23:15;20.90;66.70
45803;DHT22;31504;51.716;9.184;2022-10-31T19:26:16;20.90;66.70
45803;DHT22;31504;51.716;9.184;2022-10-31T19:29:17;20.90;66.70
45803;DHT22;31504;51.716;9.184;2022-10-31T19:32:17;20.90;66.70
45803;DHT22;31504;51.716;9.184;2022-10-31T19:35:18;20.90;66.70
45803;DHT22;31504;51.716;9.184;2022-10-31T19:38:18;20.90;66.60
45803;DHT22;31504;51.716;9.184;2022-10-31T19:41:21;20.90;66.50
45803;DHT22;31504;51.716;9.184;2022-10-31T19:44:22;20.90;66.60
45803;DHT22;31504;51.716;9.184;2022-10-31T19:47:23;20.90;66.60
45803;DHT22;31504;51.716;9.184;2022-10-31T19:50:23;20.90;66.50
45803;DHT22;31504;51.716;9.184;2022-10-31T19:53:24;20.90;66.40
45803;DHT22;31504;51.716;9.184;2022-10-31T19:56:24;20.90;66.50
45803;DHT22;31504;51.716;9.184;2022-10-31T19:59:25;20.90;66.40
45803;DHT22;31504;51.716;9.184;2022-10-31T20:02:25;20.90;66.90
45803;DHT22;31504;51.716;9.184;2022-10-31T20:05:26;20.90;66.30
45803;DHT22;31504;51.716;9.184;2022-10-31T20:08:27;21.00;66.30
45803;DHT22;31504;51.716;9.184;2022-10-31T20:11:28;21.00;66.30
45803;DHT22;31504;51.716;9.184;2022-10-31T20:14:29;21.00;66.20
45803;DHT22;31504;51.716;9.184;2022-10-31T20:17:29;20.90;66.20
45803;DHT22;31504;51.716;9.184;2022-10-31T20:20:30;20.90;66.20
45803;DHT22;31504;51.716;9.184;2022-10-31T20:23:31;21.00;66.20
45803;DHT22;31504;51.716;9.184;2022-10-31T20:26:33;20.90;66.10
45803;DHT22;31504;51.716;9.184;2022-10-31T20:29:33;20.90;66.10
45803;DHT22;31504;51.716;9.184;2022-10-31T20:32:35;20.90;66.10
45803;DHT22;31504;51.716;9.184;2022-10-31T20:35:36;20.90;66.00
45803;DHT22;31504;51.716;9.184;2022-10-31T20:38:38;20.90;66.00
45803;DHT22;31504;51.716;9.184;2022-10-31T20:41:39;20.90;66.60
45803;DHT22;31504;51.716;9.184;2022-10-31T20:44:40;20.90;66.00
45803;DHT22;31504;51.716;9.184;2022-10-31T20:47:40;20.90;65.90
45803;DHT22;31504;51.716;9.184;2022-10-31T20:50:41;20.90;65.90